Time;durP1;ratioP1;P1;durP2;ratioP2;P2;SDS_P1;SDS_P2;PMS_P1;PMS_P2;Temp;Humidity;BMP_temperature;BMP_pressure;BME280_temperature;BME280_humidity;BME280_pressure;Samples;Min_cycle;Max_cycle;Signal;HPM_P1;HPM_P2
2022/04/10 00:01:28;;;;;;;24.27;13.17;;;;;;;1.71;75.77;98240.08;2248730;79;21290;-82
2022/04/10 00:04:28;;;;;;;23.80;13.13;;;;;;;1.69;75.80;98247.73;2248763;79;20936;-80
2022/04/10 00:07:29;;;;;;;25.33;13.53;;;;;;;1.66;75.75;98246.34;2248777;79;20876;-81
2022/04/10 00:10:29;;;;;;;22.87;13.47;;;;;;;1.64;75.84;98250.55;2248753;79;20880;-80
2022/04/10 00:13:29;;;;;;;21.07;12.53;;;;;;;1.58;75.96;98251.61;2248705;79;20975;-80
2022/04/10 00:16:30;;;;;;;22.20;12.43;;;;;;;1.57;75.97;98262.72;2248787;79;21335;-80
2022/04/10 00:19:31;;;;;;;27.50;14.43;;;;;;;1.54;76.06;98258.74;2248736;79;20888;-80
2022/04/10 00:22:31;;;;;;;27.07;15.07;;;;;;;1.52;76.47;98256.52;2248130;79;20939;-80
2022/04/10 00:25:31;;;;;;;24.83;15.83;;;;;;;1.46;76.42;98261.44;2248028;79;21272;-80
2022/04/10 00:28:31;;;;;;;28.90;17.07;;;;;;;1.43;76.48;98261.32;2247492;79;21026;-80
2022/04/10 00:31:32;;;;;;;28.13;16.23;;;;;;;1.43;76.41;98261.32;2247673;79;20887;-80
2022/04/10 00:34:32;;;;;;;27.30;15.10;;;;;;;1.41;76.34;98266.41;2247534;79;21280;-80
2022/04/10 00:37:33;;;;;;;27.77;15.00;;;;;;;1.39;76.36;98267.16;2252744;79;20982;-80
2022/04/10 00:40:33;;;;;;;24.33;13.53;;;;;;;1.34;76.37;98272.54;2255672;79;20887;-80
2022/04/10 00:43:36;;;;;;;24.83;13.73;;;;;;;1.31;76.50;98278.84;2255573;79;20895;-80
2022/04/10 00:46:34;;;;;;;26.40;14.97;;;;;;;1.28;76.71;98285.63;2255614;79;20895;-81
2022/04/10 00:49:34;;;;;;;26.50;13.67;;;;;;;1.31;76.79;98293.87;2255386;79;20903;-80
2022/04/10 00:52:35;;;;;;;21.10;13.00;;;;;;;1.32;76.76;98294.34;2255481;79;20888;-81
2022/04/10 00:55:35;;;;;;;26.40;15.53;;;;;;;1.31;76.72;98298.13;2255696;79;20887;-81
2022/04/10 00:58:35;;;;;;;20.53;13.83;;;;;;;1.30;76.89;98303.69;2255405;79;21268;-80
2022/04/10 01:01:36;;;;;;;26.87;15.27;;;;;;;1.30;76.90;98307.95;2255377;79;20999;-80
2022/04/10 01:04:37;;;;;;;29.50;15.90;;;;;;;1.29;77.24;98310.93;2255831;79;20967;-81
2022/04/10 01:07:37;;;;;;;25.17;14.37;;;;;;;1.29;77.43;98305.79;2256019;79;20919;-80
2022/04/10 01:10:37;;;;;;;28.70;13.97;;;;;;;1.27;77.59;98303.16;2256044;79;20956;-80
2022/04/10 01:13:38;;;;;;;26.33;14.87;;;;;;;1.25;77.67;98306.08;2255643;79;20879;-80
2022/04/10 01:16:38;;;;;;;23.73;14.27;;;;;;;1.25;77.55;98309.05;2255813;79;20860;-80
2022/04/10 01:19:39;;;;;;;27.30;15.83;;;;;;;1.25;77.75;98321.50;2255444;79;21282;-81
2022/04/10 01:22:40;;;;;;;27.47;15.30;;;;;;;1.25;77.67;98333.07;2255383;79;20930;-82
2022/04/10 01:25:39;;;;;;;24.47;14.90;;;;;;;1.24;77.69;98336.87;2255552;79;20926;-81
2022/04/10 01:28:40;;;;;;;24.53;14.07;;;;;;;1.22;77.88;98340.66;2255247;78;20939;-81
2022/04/10 01:31:40;;;;;;;23.83;13.10;;;;;;;1.20;78.28;98344.87;2255300;79;20955;-82
2022/04/10 01:34:41;;;;;;;20.90;13.30;;;;;;;1.18;78.12;98342.64;2255243;79;20954;-79
2022/04/10 01:37:41;;;;;;;21.13;13.20;;;;;;;1.15;78.27;98341.64;2255056;79;20962;-82
2022/04/10 01:40:41;;;;;;;22.33;12.83;;;;;;;1.12;78.21;98347.53;2255198;79;20899;-81
2022/04/10 01:43:42;;;;;;;21.93;12.17;;;;;;;1.08;78.57;98340.52;2255466;79;20915;-82
2022/04/10 01:46:42;;;;;;;23.13;13.90;;;;;;;1.04;78.52;98345.06;2255570;79;20864;-82
2022/04/10 01:49:43;;;;;;;25.87;15.57;;;;;;;1.01;78.70;98347.50;2255424;79;20899;-81
2022/04/10 01:52:43;;;;;;;29.07;16.30;;;;;;;0.98;78.71;98348.66;2255671;79;20891;-81
2022/04/10 01:55:43;;;;;;;31.30;16.90;;;;;;;0.94;78.62;98346.78;2255600;79;20863;-81
2022/04/10 01:58:44;;;;;;;30.30;16.47;;;;;;;0.91;78.66;98354.36;2255269;79;21295;-80
2022/04/10 02:01:45;;;;;;;32.33;17.80;;;;;;;0.88;78.49;98355.11;2255187;79;20872;-80
2022/04/10 02:04:46;;;;;;;29.93;16.27;;;;;;;0.88;78.43;98355.11;2255194;79;20955;-81
2022/04/10 02:07:45;;;;;;;29.90;15.57;;;;;;;0.88;78.50;98355.52;2255459;79;20947;-81
2022/04/10 02:10:46;;;;;;;30.10;16.57;;;;;;;0.84;78.42;98357.45;2255253;79;21310;-81
2022/04/10 02:13:46;;;;;;;32.07;16.40;;;;;;;0.78;78.31;98357.20;2255137;79;20907;-80
2022/04/10 02:16:46;;;;;;;28.90;16.53;;;;;;;0.73;78.43;98356.13;2255321;79;20895;-82
2022/04/10 02:19:47;;;;;;;30.37;16.33;;;;;;;0.72;78.50;98360.39;2255255;79;21322;-82
2022/04/10 02:22:47;;;;;;;24.40;15.53;;;;;;;0.71;78.56;98366.75;2255554;79;20930;-83
2022/04/10 02:25:48;;;;;;;25.30;15.90;;;;;;;0.69;78.60;98368.38;2255490;79;20930;-82
2022/04/10 02:28:48;;;;;;;28.30;15.80;;;;;;;0.69;78.62;98378.65;2255428;78;20935;-81
2022/04/10 02:31:48;;;;;;;20.40;13.47;;;;;;;0.66;78.73;98368.24;2255862;79;20974;-80
2022/04/10 02:34:49;;;;;;;22.83;12.97;;;;;;;0.64;78.83;98370.34;2255529;79;20884;-81
2022/04/10 02:37:49;;;;;;;25.07;13.20;;;;;;;0.64;78.82;98374.59;2254131;79;20959;-81
2022/04/10 02:40:50;;;;;;;18.20;11.87;;;;;;;0.64;79.12;98372.03;2252939;79;21414;-80
2022/04/10 02:43:50;;;;;;;23.23;13.17;;;;;;;0.64;79.18;98366.48;2252695;79;20915;-80
2022/04/10 02:46:50;;;;;;;22.20;12.53;;;;;;;0.67;79.58;98367.02;2252958;79;20911;-81
2022/04/10 02:49:51;;;;;;;27.37;13.87;;;;;;;0.68;79.62;98370.47;2252625;79;20900;-81
2022/04/10 02:52:51;;;;;;;21.17;12.37;;;;;;;0.70;79.57;98371.41;2252474;79;21259;-81
2022/04/10 02:55:52;;;;;;;20.17;12.20;;;;;;;0.69;79.96;98377.36;2252844;79;20892;-80
2022/04/10 02:58:52;;;;;;;27.13;13.50;;;;;;;0.69;80.00;98378.23;2252711;79;20887;-80
2022/04/10 03:01:52;;;;;;;17.87;11.73;;;;;;;0.66;79.77;98371.69;2252417;79;21319;-79
2022/04/10 03:04:53;;;;;;;19.53;12.37;;;;;;;0.66;79.86;98375.55;2252734;79;20899;-80
2022/04/10 03:07:53;;;;;;;19.67;11.70;;;;;;;0.66;79.94;98375.55;2252726;79;20883;-79
2022/04/10 03:10:54;;;;;;;21.07;11.30;;;;;;;0.65;80.25;98371.22;2252662;79;20904;-79
2022/04/10 03:13:54;;;;;;;22.70;11.83;;;;;;;0.66;80.07;98378.11;2252583;79;20943;-79
2022/04/10 03:16:56;;;;;;;25.87;12.10;;;;;;;0.64;80.28;98376.77;2252057;79;20971;-80
2022/04/10 03:19:55;;;;;;;20.67;12.60;;;;;;;0.64;80.25;98385.75;2252251;79;20938;-80
2022/04/10 03:22:55;;;;;;;18.63;11.50;;;;;;;0.63;80.07;98385.28;2252580;79;20880;-79
2022/04/10 03:25:56;;;;;;;21.73;11.80;;;;;;;0.66;80.40;98396.50;2252287;79;20970;-81
2022/04/10 03:28:56;;;;;;;17.17;11.80;;;;;;;0.63;80.29;98401.97;2252240;79;21259;-79
2022/04/10 03:31:57;;;;;;;19.87;12.23;;;;;;;0.63;80.62;98402.38;2252521;79;20982;-79
2022/04/10 03:35:00;;;;;;;21.57;13.60;;;;;;;0.61;80.21;98407.86;2252391;79;20959;-80
2022/04/10 03:38:00;;;;;;;25.53;13.63;;;;;;;0.60;80.28;98413.40;2253632;79;20911;-78
2022/04/10 03:41:01;;;;;;;27.33;15.03;;;;;;;0.60;80.28;98417.25;2255383;79;20890;-80
2022/04/10 03:44:01;;;;;;;30.93;16.93;;;;;;;0.58;80.28;98425.30;2255372;79;20895;-79
2022/04/10 03:47:02;;;;;;;28.23;16.73;;;;;;;0.56;80.51;98429.48;2255277;79;20887;-79
2022/04/10 03:50:02;;;;;;;25.67;14.97;;;;;;;0.54;80.36;98436.25;2255089;79;20904;-78
2022/04/10 03:53:02;;;;;;;28.20;14.77;;;;;;;0.53;80.16;98438.34;2254892;79;20942;-79
2022/04/10 03:56:03;;;;;;;24.70;14.53;;;;;;;0.54;80.39;98439.22;2255559;79;20848;-80
2022/04/10 03:59:03;;;;;;;25.37;14.77;;;;;;;0.55;80.30;98443.55;2255934;79;21294;-80
2022/04/10 04:02:03;;;;;;;22.90;13.97;;;;;;;0.55;80.37;98441.86;2254793;79;20946;-81
2022/04/10 04:05:05;;;;;;;24.57;14.83;;;;;;;0.56;80.53;98443.61;2255485;79;20883;-80
2022/04/10 04:08:04;;;;;;;26.67;14.87;;;;;;;0.56;80.34;98448.75;2255248;79;20918;-79
2022/04/10 04:11:09;;;;;;;30.20;15.93;;;;;;;0.57;80.43;98448.34;2256048;79;20971;-79
2022/04/10 04:14:11;;;;;;;25.32;15.80;;;;;;;0.62;80.78;98452.88;2256191;79;20895;-80
2022/04/10 04:17:09;;;;;;;24.77;12.73;;;;;;;0.63;80.50;98458.48;2255839;79;20891;-81
2022/04/10 04:20:10;;;;;;;23.10;14.10;;;;;;;0.64;80.72;98460.24;2255718;79;20939;-81
2022/04/10 04:23:10;;;;;;;25.13;15.03;;;;;;;0.63;81.11;98453.34;2255319;79;20878;-82
2022/04/10 04:26:11;;;;;;;21.60;13.73;;;;;;;0.67;80.97;98459.91;2255604;79;20911;-81
2022/04/10 04:29:11;;;;;;;24.00;11.83;;;;;;;0.71;81.75;98465.65;2255682;79;20920;-81
2022/04/10 04:32:11;;;;;;;18.23;12.63;;;;;;;0.72;81.51;98464.44;2255323;79;21011;-80
2022/04/10 04:35:13;;;;;;;23.07;13.17;;;;;;;0.74;82.15;98474.78;2255465;79;21312;-80
2022/04/10 04:38:12;;;;;;;25.23;13.63;;;;;;;0.75;81.34;98470.98;2254746;79;20958;-79
2022/04/10 04:41:13;;;;;;;22.63;12.30;;;;;;;0.78;81.54;98476.67;2254666;79;20939;-79
2022/04/10 04:44:13;;;;;;;15.60;10.47;;;;;;;0.80;81.43;98478.49;2254546;79;20931;-80
2022/04/10 04:47:13;;;;;;;21.43;12.77;;;;;;;0.85;81.72;98478.70;2254990;79;20852;-81
2022/04/10 04:50:14;;;;;;;20.07;12.80;;;;;;;0.89;81.36;98483.19;2255067;79;20931;-79
2022/04/10 04:53:14;;;;;;;21.70;13.23;;;;;;;0.98;81.32;98486.16;2254899;79;21339;-81
2022/04/10 04:56:15;;;;;;;20.07;14.00;;;;;;;1.08;81.23;98488.31;2254842;79;20948;-79
2022/04/10 04:59:15;;;;;;;24.50;15.13;;;;;;;1.21;81.13;98497.02;2254806;79;21286;-80
2022/04/10 05:02:15;;;;;;;26.23;14.50;;;;;;;1.35;81.08;98492.87;2254312;79;20950;-81
2022/04/10 05:05:16;;;;;;;20.43;13.77;;;;;;;1.50;80.98;98497.38;2254770;79;20926;-82
2022/04/10 05:08:19;;;;;;;22.27;12.20;;;;;;;1.61;80.39;98501.27;2254888;79;21366;-81
2022/04/10 05:11:17;;;;;;;19.87;13.07;;;;;;;1.78;80.28;98507.13;2255300;79;20927;-80
2022/04/10 05:14:17;;;;;;;18.23;10.83;;;;;;;1.93;79.88;98513.31;2254673;79;20914;-81
2022/04/10 05:17:17;;;;;;;16.23;10.73;;;;;;;2.05;79.50;98520.23;2255147;79;21243;-80
2022/04/10 05:20:18;;;;;;;18.07;11.10;;;;;;;2.17;79.38;98525.87;2254556;79;20864;-81
2022/04/10 05:23:18;;;;;;;23.73;12.43;;;;;;;2.33;79.22;98532.09;2254849;79;20931;-82
2022/04/10 05:26:20;;;;;;;25.20;14.57;;;;;;;2.47;78.75;98534.79;2254724;79;21339;-83
2022/04/10 05:29:20;;;;;;;30.97;15.27;;;;;;;2.60;78.50;98546.85;2254917;79;20900;-83
2022/04/10 05:32:20;;;;;;;22.00;14.67;;;;;;;2.72;78.26;98544.36;2254403;79;20973;-82
2022/04/10 05:35:21;;;;;;;18.07;13.20;;;;;;;2.79;77.99;98544.18;2255467;79;20955;-82
2022/04/10 05:38:24;;;;;;;18.47;13.33;;;;;;;2.88;77.93;98550.97;2255370;79;21413;-82
2022/04/10 05:41:25;;;;;;;17.30;10.83;;;;;;;2.87;77.65;98551.79;2255437;79;20876;-80
2022/04/10 05:44:25;;;;;;;20.00;11.30;;;;;;;3.05;77.65;98553.75;2255701;79;20903;-82
2022/04/10 05:47:26;;;;;;;17.80;11.90;;;;;;;3.07;76.97;98552.11;2255982;79;20899;-82
2022/04/10 05:50:26;;;;;;;18.97;11.07;;;;;;;3.10;76.98;98557.38;2255701;79;20872;-82
2022/04/10 05:53:27;;;;;;;15.37;11.83;;;;;;;3.25;76.98;98562.21;2255709;79;21330;-82
2022/04/10 05:56:27;;;;;;;16.33;11.10;;;;;;;3.29;76.77;98568.36;2255790;79;20848;-82
2022/04/10 05:59:27;;;;;;;17.83;12.20;;;;;;;3.53;76.47;98567.97;2255537;79;20895;-81
2022/04/10 06:02:28;;;;;;;17.00;11.20;;;;;;;3.69;75.80;98568.96;2255487;79;20982;-83
2022/04/10 06:05:28;;;;;;;16.50;12.07;;;;;;;3.74;75.61;98566.13;2255504;79;20900;-83
2022/04/10 06:08:29;;;;;;;18.83;11.33;;;;;;;3.79;75.44;98569.73;2255106;79;20896;-82
2022/04/10 06:11:29;;;;;;;18.37;10.67;;;;;;;3.90;75.25;98561.48;2255207;79;20899;-82
2022/04/10 06:14:29;;;;;;;16.87;10.40;;;;;;;4.02;74.56;98564.47;2255273;79;20948;-81
2022/04/10 06:17:30;;;;;;;21.80;11.03;;;;;;;4.08;74.30;98554.33;2255184;79;21307;-81
2022/04/10 06:20:30;;;;;;;16.70;10.37;;;;;;;4.15;74.07;98561.45;2255832;79;20891;-81
2022/04/10 06:23:31;;;;;;;18.37;11.07;;;;;;;4.19;74.08;98562.43;2255403;79;20916;-82
2022/04/10 06:26:31;;;;;;;15.20;9.47;;;;;;;4.15;74.17;98573.08;2255640;79;20885;-83
2022/04/10 06:29:31;;;;;;;18.43;11.17;;;;;;;4.15;74.08;98569.20;2255573;79;21310;-82
2022/04/10 06:32:32;;;;;;;17.90;11.77;;;;;;;4.14;73.52;98580.36;2255774;79;20927;-83
2022/04/10 06:35:32;;;;;;;12.10;9.27;;;;;;;3.98;73.91;98589.73;2255739;79;20930;-83
2022/04/10 06:38:33;;;;;;;13.67;10.30;;;;;;;3.99;74.27;98587.61;2255378;78;20959;-84
2022/04/10 06:41:33;;;;;;;16.87;10.47;;;;;;;4.09;74.27;98588.38;2256006;79;20872;-82
2022/04/10 06:44:34;;;;;;;15.27;11.53;;;;;;;4.04;73.55;98598.97;2255714;79;20922;-85
2022/04/10 06:47:34;;;;;;;17.57;11.73;;;;;;;4.52;74.65;98594.95;2255695;79;20879;-82
2022/04/10 06:50:35;;;;;;;18.33;12.47;;;;;;;4.50;72.23;98597.91;2255413;79;20892;-83
2022/04/10 06:53:35;;;;;;;16.33;11.90;;;;;;;4.31;72.39;98593.41;2255348;79;20986;-84
2022/04/10 06:56:36;;;;;;;16.93;10.93;;;;;;;4.27;72.79;98596.73;2255348;79;20840;-83
2022/04/10 06:59:36;;;;;;;16.97;9.20;;;;;;;4.36;72.46;98592.30;2255326;79;20906;-84
2022/04/10 07:02:36;;;;;;;18.80;10.30;;;;;;;4.36;71.96;98595.77;2254659;79;21437;-84
2022/04/10 07:05:37;;;;;;;16.57;11.27;;;;;;;4.46;72.14;98595.23;2255164;79;21394;-82
2022/04/10 07:08:38;;;;;;;21.13;11.30;;;;;;;4.74;71.91;98600.84;2255123;79;20872;-83
2022/04/10 07:11:38;;;;;;;17.73;9.70;;;;;;;4.99;71.65;98599.00;2255272;79;20884;-82
2022/04/10 07:14:38;;;;;;;15.77;9.27;;;;;;;5.12;69.18;98602.41;2255455;79;20943;-84
2022/04/10 07:17:39;;;;;;;12.53;8.90;;;;;;;5.18;68.91;98606.47;2255558;79;20887;-83
2022/04/10 07:20:39;;;;;;;16.33;10.57;;;;;;;5.31;69.49;98600.84;2255276;79;20981;-83
2022/04/10 07:23:43;;;;;;;11.93;9.47;;;;;;;5.50;68.82;98606.13;2255681;79;21098;-83
2022/04/10 07:26:43;;;;;;;16.80;9.90;;;;;;;5.54;68.46;98613.14;2254873;79;20943;-82
2022/04/10 07:29:43;;;;;;;15.03;9.27;;;;;;;5.57;67.29;98622.28;2254867;79;20983;-82
2022/04/10 07:32:44;;;;;;;15.40;9.27;;;;;;;5.45;67.43;98621.94;2255386;79;20939;-82
2022/04/10 07:35:44;;;;;;;29.93;12.30;;;;;;;5.47;67.88;98620.69;2255703;79;21331;-81
2022/04/10 07:38:44;;;;;;;31.20;13.00;;;;;;;5.60;66.87;98629.27;2255192;77;20963;-84
2022/04/10 07:41:45;;;;;;;18.00;9.47;;;;;;;5.85;66.43;98629.52;2255661;79;20883;-81
2022/04/10 07:44:45;;;;;;;16.40;8.73;;;;;;;5.99;66.47;98629.50;2255565;79;21310;-83
2022/04/10 07:47:45;;;;;;;13.83;7.47;;;;;;;6.23;65.66;98635.34;2254940;79;21059;-83
2022/04/10 07:50:49;;;;;;;18.90;8.87;;;;;;;6.27;65.21;98629.82;2254821;79;21247;-82
2022/04/10 07:53:49;;;;;;;12.60;7.40;;;;;;;6.44;64.17;98635.01;2254773;79;20911;-82
2022/04/10 07:56:50;;;;;;;14.70;7.30;;;;;;;6.51;63.31;98643.81;2254796;79;20856;-82
2022/04/10 07:59:50;;;;;;;10.20;6.83;;;;;;;6.54;64.11;98643.47;2254855;79;20938;-82
2022/04/10 08:02:50;;;;;;;13.83;6.83;;;;;;;6.37;62.53;98646.06;2254615;79;20942;-82
2022/04/10 08:05:51;;;;;;;12.10;7.10;;;;;;;6.23;63.68;98652.20;2254783;79;20894;-82
2022/04/10 08:08:51;;;;;;;12.50;6.33;;;;;;;6.19;63.25;98642.59;2255190;79;20868;-82
2022/04/10 08:11:53;;;;;;;15.83;6.70;;;;;;;6.14;63.07;98641.59;2255556;79;21351;-82
2022/04/10 08:14:55;;;;;;;12.60;6.50;;;;;;;6.38;63.36;98643.93;2255468;79;20911;-83
2022/04/10 08:17:56;;;;;;;13.30;6.07;;;;;;;6.91;62.58;98638.73;2255556;79;20871;-82
2022/04/10 08:20:56;;;;;;;13.00;5.77;;;;;;;7.35;60.30;98646.23;2255697;79;20895;-83
2022/04/10 08:23:56;;;;;;;13.00;5.50;;;;;;;7.76;59.41;98647.50;2255370;79;20926;-82
2022/04/10 08:26:56;;;;;;;11.50;5.50;;;;;;;8.51;57.70;98637.22;2255707;79;20891;-83
2022/04/10 08:29:57;;;;;;;11.80;5.73;;;;;;;8.86;56.18;98649.10;2255294;79;20890;-82
2022/04/10 08:32:58;;;;;;;13.17;5.23;;;;;;;8.87;57.78;98651.28;2255136;79;21353;-83
2022/04/10 08:36:01;;;;;;;13.63;6.63;;;;;;;9.14;56.40;98642.58;2255906;79;20938;-83
2022/04/10 08:39:01;;;;;;;13.23;5.43;;;;;;;9.24;53.25;98654.88;2255580;79;20942;-84
2022/04/10 08:42:02;;;;;;;11.50;4.73;;;;;;;9.29;54.65;98656.23;2255535;79;21330;-82
2022/04/10 08:45:05;;;;;;;6.00;3.70;;;;;;;9.48;50.89;98663.88;2255841;79;20944;-84
2022/04/10 08:48:07;;;;;;;7.07;3.70;;;;;;;9.45;51.88;98652.98;2233095;79;20891;-82
2022/04/10 08:51:07;;;;;;;10.23;5.60;;;;;;;9.42;51.11;98658.58;2254796;79;20906;-82
2022/04/10 08:54:08;;;;;;;6.67;4.20;;;;;;;9.34;53.99;98654.57;2254903;79;20938;-84
2022/04/10 08:57:08;;;;;;;10.40;5.70;;;;;;;9.60;51.41;98659.28;2255784;79;21314;-84
2022/04/10 09:00:09;;;;;;;9.50;4.13;;;;;;;9.60;48.88;98655.38;2255287;79;20903;-82
2022/04/10 09:03:09;;;;;;;8.63;3.70;;;;;;;9.51;48.75;98656.97;2254776;79;20943;-83
2022/04/10 09:06:09;;;;;;;5.73;3.43;;;;;;;9.29;48.56;98660.14;2255430;79;21110;-84
2022/04/10 09:09:10;;;;;;;6.53;3.10;;;;;;;8.85;48.06;98669.91;2255503;79;21286;-83
2022/04/10 09:12:10;;;;;;;8.90;3.90;;;;;;;8.76;48.34;98671.06;2255663;79;20856;-83
2022/04/10 09:15:11;;;;;;;7.37;3.73;;;;;;;8.78;49.80;98664.15;2255601;79;20875;-83
2022/04/10 09:18:12;;;;;;;7.80;3.87;;;;;;;9.16;49.65;98661.70;2255064;79;20887;-82
2022/04/10 09:21:11;;;;;;;6.37;3.37;;;;;;;9.02;48.48;98680.16;2254531;79;21327;-84
2022/04/10 09:24:12;;;;;;;7.20;4.63;;;;;;;9.25;48.11;98657.05;2254703;79;20882;-82
2022/04/10 09:27:12;;;;;;;7.67;3.33;;;;;;;9.27;47.72;98672.27;2254400;79;21275;-83
2022/04/10 09:30:13;;;;;;;6.50;3.17;;;;;;;9.00;48.56;98675.77;2254835;79;20963;-83
2022/04/10 09:33:13;;;;;;;9.73;3.30;;;;;;;8.74;48.09;98674.94;2255188;79;21275;-83
2022/04/10 09:36:13;;;;;;;9.30;3.17;;;;;;;8.38;48.77;98674.28;2255534;79;20903;-83
2022/04/10 09:39:14;;;;;;;7.87;3.63;;;;;;;7.99;48.44;98681.34;2255310;78;20963;-83
2022/04/10 09:42:14;;;;;;;6.40;3.50;;;;;;;7.80;50.21;98674.03;2255388;79;21271;-83
2022/04/10 09:45:15;;;;;;;5.63;2.90;;;;;;;7.82;50.34;98686.62;2255581;79;20883;-83
2022/04/10 09:48:15;;;;;;;7.10;3.50;;;;;;;7.88;49.65;98693.25;2255703;79;20959;-82
2022/04/10 09:51:18;;;;;;;7.10;3.70;;;;;;;7.89;50.90;98689.80;2255578;79;20879;-82
2022/04/10 09:54:19;;;;;;;9.70;3.97;;;;;;;7.85;51.01;98691.89;2255392;79;20892;-83
2022/04/10 09:57:19;;;;;;;10.30;3.77;;;;;;;7.84;50.43;98693.16;2255387;79;21254;-81
2022/04/10 10:00:19;;;;;;;9.27;3.73;;;;;;;8.24;50.18;98685.70;2255612;79;20887;-83
2022/04/10 10:03:20;;;;;;;5.63;3.13;;;;;;;8.14;49.94;98688.55;2255182;79;20970;-84
2022/04/10 10:06:20;;;;;;;5.50;3.40;;;;;;;7.74;49.87;98692.48;2255384;79;20883;-83
2022/04/10 10:09:21;;;;;;;9.17;3.60;;;;;;;7.46;51.19;98689.30;2255154;79;21337;-84
2022/04/10 10:12:23;;;;;;;6.63;3.40;;;;;;;7.41;51.04;98692.23;2255280;79;20916;-83
2022/04/10 10:15:24;;;;;;;6.90;4.20;;;;;;;7.60;52.78;98687.88;2255000;79;20912;-84
2022/04/10 10:18:24;;;;;;;7.23;3.00;;;;;;;8.05;51.88;98688.80;2255218;79;20883;-82
2022/04/10 10:21:24;;;;;;;6.33;2.70;;;;;;;8.19;50.56;98681.72;2255038;79;20915;-82
2022/04/10 10:24:25;;;;;;;5.53;2.70;;;;;;;8.08;49.40;98684.96;2255415;79;20875;-83
2022/04/10 10:27:28;;;;;;;6.40;3.47;;;;;;;7.99;50.38;98688.26;2255301;79;20970;-83
2022/04/10 10:30:31;;;;;;;6.87;3.23;;;;;;;8.02;50.48;98684.42;2255249;79;20887;-81
2022/04/10 10:33:34;;;;;;;10.33;3.80;;;;;;;8.01;50.61;98689.59;2254884;79;21409;-81
2022/04/10 10:36:32;;;;;;;6.40;3.50;;;;;;;8.12;50.56;98682.45;2255200;79;20883;-83
2022/04/10 10:39:33;;;;;;;7.63;4.20;;;;;;;8.24;50.99;98684.40;2254908;79;20935;-83
2022/04/10 10:42:35;;;;;;;9.00;4.70;;;;;;;8.40;50.42;98685.59;2255038;79;21290;-83
2022/04/10 10:45:36;;;;;;;11.53;4.73;;;;;;;8.73;50.43;98672.31;2254987;79;20884;-82
2022/04/10 10:48:37;;;;;;;6.03;3.13;;;;;;;9.02;49.23;98677.97;2254621;79;20938;-83
2022/04/10 10:51:37;;;;;;;5.87;3.00;;;;;;;9.09;48.73;98685.02;2254807;79;20867;-81
2022/04/10 10:54:37;;;;;;;7.13;4.60;;;;;;;9.24;47.74;98687.86;2254981;79;20927;-83
2022/04/10 10:57:37;;;;;;;12.90;4.70;;;;;;;9.46;46.94;98679.91;2254751;79;21302;-82
2022/04/10 11:00:38;;;;;;;6.90;4.07;;;;;;;9.56;48.40;98676.18;2254891;79;20891;-82
2022/04/10 11:03:38;;;;;;;9.10;4.07;;;;;;;9.77;48.17;98678.61;2254710;79;20927;-82
2022/04/10 11:06:39;;;;;;;9.50;4.27;;;;;;;10.43;48.20;98673.75;2255012;79;20934;-83
2022/04/10 11:09:39;;;;;;;5.53;3.17;;;;;;;10.53;45.44;98672.98;2254755;79;20926;-82
2022/04/10 11:12:39;;;;;;;6.00;3.30;;;;;;;10.24;45.98;98672.66;2255086;79;21219;-84
2022/04/10 11:15:40;;;;;;;4.17;2.50;;;;;;;10.00;45.66;98678.45;2255550;79;20915;-82
2022/04/10 11:18:40;;;;;;;5.73;2.90;;;;;;;9.76;45.70;98675.55;2255850;79;21115;-82
2022/04/10 11:21:41;;;;;;;6.20;3.10;;;;;;;9.43;46.08;98678.14;2255754;79;21216;-84
2022/04/10 11:24:44;;;;;;;7.33;3.13;;;;;;;9.12;45.50;98686.38;2255702;79;20852;-83
2022/04/10 11:27:44;;;;;;;4.63;2.70;;;;;;;8.87;46.23;98692.50;2256020;79;20888;-82
2022/04/10 11:30:44;;;;;;;7.27;3.40;;;;;;;8.90;46.02;98694.28;2255799;79;20915;-82
2022/04/10 11:33:44;;;;;;;6.47;3.30;;;;;;;8.97;46.02;98691.34;2255759;79;21283;-83
2022/04/10 11:36:45;;;;;;;6.13;3.33;;;;;;;9.11;45.29;98698.94;2255324;79;20876;-83
2022/04/10 11:39:45;;;;;;;6.63;3.30;;;;;;;9.06;44.28;98701.47;2255669;77;20978;-84
2022/04/10 11:42:46;;;;;;;12.13;5.23;;;;;;;9.16;45.09;98697.28;2255716;79;20919;-83
2022/04/10 11:45:48;;;;;;;8.07;4.47;;;;;;;9.13;45.09;98694.63;2255370;79;20895;-82
2022/04/10 11:48:46;;;;;;;7.83;3.83;;;;;;;9.23;46.07;98701.30;2255708;79;20920;-83
2022/04/10 11:51:47;;;;;;;8.43;4.03;;;;;;;9.34;45.96;98694.07;2255547;79;21259;-83
2022/04/10 11:54:47;;;;;;;7.63;5.07;;;;;;;9.29;46.16;98695.31;2255791;79;20935;-81
2022/04/10 11:57:48;;;;;;;8.57;4.37;;;;;;;9.37;46.69;98697.59;2254786;79;20923;-83
2022/04/10 12:00:48;;;;;;;5.70;3.10;;;;;;;9.41;46.03;98699.39;2255437;79;20958;-84
2022/04/10 12:03:51;;;;;;;7.13;3.30;;;;;;;9.22;45.42;98704.76;2254838;79;21298;-82
2022/04/10 12:06:52;;;;;;;9.37;5.00;;;;;;;9.03;46.09;98704.45;2255470;79;20888;-83
2022/04/10 12:09:52;;;;;;;11.67;3.73;;;;;;;8.90;47.29;98705.56;2255432;79;20896;-84
2022/04/10 12:12:56;;;;;;;8.47;4.10;;;;;;;8.76;47.10;98710.09;2255361;79;20918;-85
2022/04/10 12:15:56;;;;;;;8.53;4.47;;;;;;;8.79;48.49;98717.53;2255138;79;20923;-85
2022/04/10 12:18:56;;;;;;;6.60;3.90;;;;;;;8.82;48.39;98711.08;2255344;79;20895;-84
2022/04/10 12:21:57;;;;;;;5.87;3.00;;;;;;;8.58;48.66;98711.50;2255319;79;20922;-83
2022/04/10 12:24:57;;;;;;;3.57;2.30;;;;;;;8.28;51.01;98731.30;2255357;79;20888;-83
2022/04/10 12:27:57;;;;;;;6.53;3.30;;;;;;;8.22;53.39;98725.97;2255187;79;20895;-83
2022/04/10 12:30:58;;;;;;;3.83;2.47;;;;;;;8.47;51.54;98706.95;2255488;79;20887;-83
2022/04/10 12:33:58;;;;;;;9.10;3.53;;;;;;;8.86;50.28;98705.06;2255296;79;21306;-83
2022/04/10 12:36:59;;;;;;;7.30;3.00;;;;;;;9.33;50.68;98694.50;2255198;79;20884;-82
2022/04/10 12:40:00;;;;;;;5.70;3.40;;;;;;;9.25;48.08;98705.23;2255392;79;20915;-83
2022/04/10 12:42:59;;;;;;;7.43;3.60;;;;;;;8.86;48.32;98709.39;2255510;79;21274;-83
2022/04/10 12:46:00;;;;;;;6.90;3.27;;;;;;;8.57;49.23;98699.77;2255702;79;20856;-78
2022/04/10 12:49:00;;;;;;;4.13;3.20;;;;;;;8.62;48.70;98695.09;2255784;79;20893;-83
2022/04/10 12:52:03;;;;;;;6.13;3.23;;;;;;;8.71;49.16;98702.63;2255979;79;20856;-82
2022/04/10 12:55:02;;;;;;;4.97;3.37;;;;;;;9.01;48.32;98695.75;2255792;79;21274;-82
2022/04/10 12:58:03;;;;;;;5.17;3.20;;;;;;;9.23;46.62;98692.61;2255819;79;20888;-82
2022/04/10 13:01:02;;;;;;;5.77;3.13;;;;;;;9.28;46.24;98688.34;2255752;79;20880;-83
2022/04/10 13:04:02;;;;;;;4.40;3.13;;;;;;;9.19;47.47;98690.81;2255332;79;20919;-83
2022/04/10 13:07:03;;;;;;;5.63;3.40;;;;;;;9.07;48.26;98686.73;2255973;79;20931;-83
2022/04/10 13:10:04;;;;;;;5.03;3.07;;;;;;;9.08;48.94;98687.17;2255635;79;21239;-83
2022/04/10 13:13:04;;;;;;;11.33;4.30;;;;;;;9.26;48.29;98675.30;2255750;79;20921;-82
2022/04/10 13:16:04;;;;;;;4.97;3.20;;;;;;;9.15;47.82;98677.30;2255477;79;20943;-84
2022/04/10 13:19:04;;;;;;;4.13;2.63;;;;;;;9.12;47.79;98673.35;2255777;79;20845;-81
2022/04/10 13:22:05;;;;;;;5.33;3.13;;;;;;;9.07;46.96;98676.31;2255897;79;20875;-82
2022/04/10 13:25:05;;;;;;;5.80;2.90;;;;;;;9.02;46.24;98676.67;2255581;79;20840;-83
2022/04/10 13:28:06;;;;;;;6.00;3.47;;;;;;;8.91;47.23;98679.11;2255526;79;20915;-84
2022/04/10 13:31:06;;;;;;;6.17;3.00;;;;;;;8.78;46.93;98672.83;2255390;79;21271;-83
2022/04/10 13:34:06;;;;;;;6.20;2.83;;;;;;;8.88;46.88;98676.45;2254903;79;20896;-82
2022/04/10 13:37:07;;;;;;;5.00;3.33;;;;;;;9.05;46.18;98674.98;2255506;79;20907;-83
2022/04/10 13:40:07;;;;;;;4.47;2.17;;;;;;;9.38;46.42;98667.21;2248658;78;20979;-84
2022/04/10 13:43:08;;;;;;;5.33;2.60;;;;;;;9.83;42.67;98675.65;2241767;79;20916;-83
2022/04/10 13:46:08;;;;;;;5.93;3.73;;;;;;;9.95;44.28;98666.22;2241492;79;20853;-82
2022/04/10 13:49:08;;;;;;;17.83;7.60;;;;;;;10.32;43.34;98674.92;2241824;79;20916;-81
2022/04/10 13:52:09;;;;;;;6.43;3.90;;;;;;;10.39;42.67;98664.11;2241769;79;20892;-81
2022/04/10 13:55:09;;;;;;;6.60;2.53;;;;;;;10.54;40.40;98666.89;2241510;79;20967;-82
2022/04/10 13:58:10;;;;;;;4.87;2.43;;;;;;;10.62;39.56;98657.83;2241690;79;20916;-81
2022/04/10 14:01:10;;;;;;;9.28;3.85;;;;;;;10.85;40.77;98654.55;2241800;79;21286;-80
2022/04/10 14:04:10;;;;;;;16.57;7.25;;;;;;;11.10;40.95;98648.19;2241641;79;21023;-82
2022/04/10 14:07:11;;;;;;;8.05;3.77;;;;;;;11.06;39.34;98647.30;2241701;79;20861;-81